Date,TemperatureHighF,TemperatureAvgF,TemperatureLowF,DewpointHighF,DewpointAvgF,DewpointLowF,HumidityHigh,HumidityAvg,HumidityLow,PressureMaxIn,PressureMinIn,WindSpeedMaxMPH,WindSpeedAvgMPH,GustSpeedMaxMPH,PrecipitationSumIn
2013-1-1,60,56,51,56,51,46,93,84,77,30.17,29.93,5,0,6,0.00
2013-1-2,64,18,56,58,-52,-100,93,27,79,30.16,29.87,10,-690,13,0.00
2013-1-3,48,28,40,46,-10,-100,95,59,92,30.26,30.10,1,-372,6,0.07
2013-1-4,50,41,36,42,33,-100,95,79,58,30.33,30.22,2,-30,5,0.01
2013-1-5,48,42,34,39,34,29,90,74,54,30.41,30.28,3,0,4,0.00
2013-1-6,52,47,43,49,39,-100,92,81,71,30.29,30.08,3,-35,6,0.00
2013-1-7,54,48,41,46,38,-100,92,73,53,30.38,30.15,4,-23,11,0.01
2013-1-8,60,52,43,53,46,36,92,81,71,30.40,30.31,2,0,6,0.00
2013-1-9,66,59,54,60,54,-100,95,86,73,30.38,30.31,1,-12,8,0.00
2013-1-10,63,58,54,57,53,46,97,85,69,30.45,30.37,6,1,9,0.00
2013-1-11,67,53,54,64,42,-100,97,84,84,30.36,30.17,1,-95,5,0.10
2013-1-12,76,63,55,65,60,54,98,92,66,30.19,30.10,4,0,8,0.01
2013-1-13,72,61,57,64,59,56,97,93,81,30.17,30.08,2,0,3,0.00
2013-1-14,68,61,56,65,59,55,99,95,87,30.19,30.10,0,0,0,0.01
2013-1-15,65,60,57,63,59,56,98,96,88,30.16,30.03,1,0,3,0.01
2013-1-16,69,63,60,65,61,59,99,93,82,30.05,29.94,8,1,11,0.01
2013-1-17,66,60,46,65,58,42,98,92,77,30.01,29.73,12,2,19,0.10
2013-1-18,54,45,38,42,34,25,92,66,33,30.49,30.02,10,2,13,0.00
2013-1-19,54,46,37,48,39,31,94,77,57,30.48,30.21,4,0,4,0.00
2013-1-20,67,55,47,48,40,30,95,64,26,30.20,30.00,9,2,18,0.00
2013-1-21,65,53,41,51,38,31,85,60,28,30.07,29.91,9,2,10,0.00
2013-1-22,53,46,36,35,26,19,67,48,30,30.25,30.00,5,2,10,0.00
2013-1-23,47,39,30,39,24,10,82,57,36,30.38,30.15,1,0,5,0.00
2013-1-24,59,46,31,44,32,13,78,59,41,30.50,30.03,12,5,16,0.00
2013-1-25,42,35,28,36,24,8,84,64,43,30.48,30.13,5,1,10,0.00
2013-1-26,55,42,36,42,30,-100,79,66,50,30.34,30.10,4,-24,10,0.00
2013-1-27,48,41,32,38,33,26,88,75,64,30.52,30.34,4,0,7,0.00
2013-1-28,54,46,37,51,42,32,95,85,77,30.48,30.27,1,0,3,0.00
2013-1-29,68,55,45,62,53,44,98,94,81,30.27,30.12,7,0,9,0.00
2013-1-30,65,60,55,63,59,54,98,96,92,30.11,29.60,16,6,18,0.05
2013-1-31,66,51,43,65,35,23,95,58,30,30.13,29.59,23,8,26,0.19
2013-2-1,55,46,35,33,23,8,62,43,19,30.36,30.10,13,6,17,0.00
2013-2-2,48,41,30,43,29,8,90,65,34,30.39,30.06,9,1,11,0.00
2013-2-3,59,49,41,40,34,30,80,60,36,30.06,29.87,13,4,18,0.00
2013-2-4,48,43,35,38,33,29,81,67,55,30.15,30.01,2,0,4,0.00
2013-2-5,67,53,43,51,43,33,86,71,30,30.06,29.92,9,2,13,0.00
2013-2-6,64,56,49,52,49,46,91,80,52,30.20,30.00,4,0,6,0.00
2013-2-7,59,53,48,54,51,46,97,91,82,30.19,29.72,6,1,15,0.86
2013-2-8,63,54,49,54,46,-100,97,78,59,30.03,29.64,8,-20,11,0.09
2013-2-9,60,48,40,48,34,23,88,61,26,30.35,30.03,7,1,10,0.00
2013-2-10,57,51,40,54,44,37,91,78,64,30.44,30.21,5,0,10,0.00
2013-2-11,66,60,55,63,58,53,98,94,88,30.25,30.01,12,2,17,0.45
2013-2-12,60,57,49,58,54,47,97,92,72,30.11,29.91,4,1,9,0.58
2013-2-13,67,55,49,63,52,46,98,88,63,29.93,29.67,11,3,17,0.21
2013-2-14,53,49,44,50,41,36,91,74,57,30.08,29.82,6,1,9,0.00
2013-2-15,54,47,39,44,41,37,93,81,61,30.09,29.96,2,0,4,0.01
2013-2-16,53,43,34,44,39,32,94,87,65,29.96,29.78,8,2,14,0.18
2013-2-17,42,35,29,32,23,14,93,65,34,30.29,29.96,13,5,20,0.02
2013-2-18,48,40,30,36,28,22,84,64,41,30.44,30.27,5,1,6,0.00
2013-2-19,63,52,38,55,48,34,95,87,64,30.27,29.94,14,3,18,0.05
2013-2-20,51,47,38,48,37,22,94,69,34,30.14,30.00,10,2,11,0.01
2013-2-21,51,46,38,46,36,24,87,68,44,30.20,30.08,5,0,8,0.00
2013-2-22,52,49,46,51,45,37,96,86,72,30.25,30.04,16,6,19,0.14
2013-2-23,50,45,44,49,41,-100,98,94,96,30.04,29.76,3,-30,7,0.34
2013-2-24,65,52,47,52,48,40,98,88,39,30.00,29.74,8,3,11,0.01
2013-2-25,50,46,44,46,40,36,96,80,60,30.13,29.96,14,3,20,0.02
2013-2-26,68,44,45,65,20,-100,98,72,77,30.02,29.57,18,-221,18,0.26
2013-2-27,60,53,48,57,44,38,93,71,55,29.85,29.66,10,4,16,0.00
2013-2-28,58,51,44,43,38,32,86,63,39,29.86,29.73,12,5,19,0.00
2013-3-1,54,46,39,38,33,30,77,62,44,29.92,29.83,7,2,12,0.00
2013-3-2,49,43,38,37,35,31,89,73,52,29.91,29.81,7,2,12,0.00
2013-3-3,48,42,36,36,28,23,89,60,41,29.98,29.86,9,2,13,0.00
2013-3-4,45,36,32,29,23,18,76,59,34,30.14,29.97,9,2,12,0.00
2013-3-5,62,58,54,56,51,47,90,80,68,29.87,29.64,18,11,24,0.01
2013-3-6,62,50,43,54,32,24,80,52,36,30.04,29.60,16,10,25,0.01
2013-3-7,57,47,36,34,31,29,78,55,37,30.19,30.04,9,3,12,0.00
2013-3-8,58,47,37,33,29,25,72,51,30,30.26,30.13,10,3,14,0.00
2013-3-9,53,48,39,46,36,29,81,65,47,30.30,30.22,6,0,8,0.00
2013-3-10,55,50,41,49,44,37,90,81,64,30.30,30.22,5,0,7,0.00
2013-3-11,66,57,49,58,53,46,95,87,68,30.23,29.92,11,1,17,0.00
2013-3-12,69,61,57,63,58,50,97,90,72,29.93,29.77,14,2,20,0.20
2013-3-13,63,55,46,50,36,24,77,51,23,30.09,29.90,11,3,17,0.00
2013-3-14,54,46,37,31,24,18,58,43,28,30.27,30.08,8,3,12,0.00
2013-3-15,56,48,37,48,37,27,82,65,42,30.22,30.00,10,2,13,0.00
2013-3-16,74,62,56,48,46,44,69,57,38,30.00,29.87,12,8,17,0.00
2013-3-20,57,52,44,40,32,19,80,48,25,30.10,29.82,12,3,0,0.00
2013-3-21,55,47,42,39,25,14,85,45,23,29.94,29.73,13,4,0,0.00
2013-3-22,49,42,33,39,27,16,70,54,35,30.09,29.94,7,0,0,0.00
2013-3-23,52,47,43,48,42,34,92,82,57,30.06,29.89,2,0,0,0.25
2013-3-24,53,21,49,50,-39,-100,96,37,82,29.89,29.41,6,0,0,1.26
2013-3-25,53,34,44,42,-11,-100,87,33,36,29.90,29.55,15,7,0,0.01
2013-3-26,51,42,36,31,27,25,71,56,38,30.14,29.90,11,5,20,0.00
2013-3-27,56,46,35,32,29,24,81,55,32,30.23,30.14,10,3,15,0.00
2013-3-28,58,47,36,33,28,23,70,48,28,30.27,30.16,9,2,12,0.00
2013-3-29,55,49,39,46,36,29,71,61,49,30.34,30.21,8,1,10,0.00
2013-3-30,58,54,49,53,48,41,90,79,63,30.24,30.09,9,0,11,0.00
2013-3-31,68,61,55,59,56,52,93,84,70,30.10,29.87,15,4,19,0.11
2013-4-1,74,65,59,61,58,55,95,80,57,29.91,29.82,9,3,13,0.25
2013-4-2,63,56,52,55,45,38,85,66,52,30.16,29.91,4,0,11,0.00
2013-4-3,59,56,51,54,47,36,93,73,45,30.24,30.06,11,1,17,0.00
2013-4-4,59,54,50,58,50,42,97,86,64,30.25,29.80,7,2,11,0.62
2013-4-5,59,49,43,50,46,42,96,90,70,30.01,29.82,7,2,12,0.02
2013-4-6,59,53,46,52,48,45,94,83,67,30.26,30.01,13,2,18,0.01
2013-4-7,61,57,53,58,54,50,94,90,84,30.26,30.15,4,0,7,0.00
2013-4-8,69,63,56,62,60,55,96,88,75,30.20,30.11,7,0,8,0.01
2013-4-9,72,66,61,67,63,59,96,91,82,30.23,30.12,8,1,10,0.01
2013-4-10,72,67,62,66,63,60,96,90,76,30.16,30.02,11,3,16,0.01
2013-4-11,72,66,62,69,65,60,98,95,91,30.02,29.86,12,2,18,0.01
2013-4-12,75,69,65,71,68,64,98,95,86,29.87,29.70,14,4,17,1.20
2013-4-13,71,64,57,68,55,45,97,75,42,30.02,29.78,7,1,11,0.00
2013-4-14,68,62,55,62,59,54,97,90,78,30.09,29.99,1,0,4,0.03
2013-4-15,70,66,62,64,62,57,95,88,80,30.16,29.87,21,1,28,0.47
2013-4-16,73,66,60,66,63,58,94,88,80,30.25,30.15,0,0,2,0.00
2013-4-17,72,67,61,67,64,60,96,90,82,30.23,30.14,0,0,0,0.01
2013-4-18,75,70,67,70,67,65,95,89,78,30.17,30.04,1,0,9,0.01
2013-4-19,74,71,67,71,69,66,97,93,90,30.03,29.86,14,5,16,0.69
2013-4-20,68,58,51,67,51,42,98,79,52,30.24,29.89,9,2,11,0.16
2013-4-21,64,56,47,52,48,42,86,73,61,30.36,30.23,8,2,14,0.00
2013-4-22,69,56,46,52,46,36,84,69,54,30.34,30.13,9,3,16,0.00
2013-4-23,66,58,51,57,52,49,92,83,69,30.20,30.12,7,2,16,0.00
2013-4-24,69,62,53,64,58,51,95,87,80,30.18,30.05,11,2,14,0.00
2013-4-25,73,66,61,65,63,59,95,89,72,30.24,30.07,4,0,7,0.58
2013-4-26,69,61,53,59,55,50,96,81,55,30.39,30.22,3,0,8,0.00
2013-4-27,67,64,61,60,58,51,91,80,59,30.34,30.23,11,2,15,0.00
2013-4-28,68,66,64,64,62,60,92,87,84,30.23,30.06,11,2,14,0.00
2013-4-29,68,66,64,65,64,62,96,92,84,30.07,29.96,7,0,8,1.74
2013-4-30,71,67,64,66,64,62,97,89,76,30.10,29.95,8,0,13,0.00
2013-5-1,70,65,59,64,61,57,94,87,74,30.18,30.07,5,1,9,0.00
2013-5-2,69,66,64,64,62,60,93,89,83,30.20,30.14,3,1,9,0.00
2013-5-3,66,63,59,62,57,48,91,82,62,30.14,30.05,5,2,11,0.00
2013-5-4,64,60,56,60,56,50,92,86,79,30.06,29.94,5,2,10,0.00
2013-5-5,69,64,60,64,61,58,94,90,76,29.95,29.83,17,3,22,0.16
2013-5-6,70,66,61,65,61,56,97,85,67,29.89,29.81,17,6,21,0.09
2013-5-7,65,61,56,60,55,50,91,81,59,29.96,29.88,10,1,10,0.11
2013-5-8,70,64,57,63,59,54,93,84,73,30.02,29.93,12,5,15,0.00
2013-5-9,74,69,63,67,63,59,88,82,66,30.08,29.98,6,1,8,0.00
2013-5-10,76,70,64,69,65,60,92,84,75,30.08,30.00,11,3,15,0.00
2013-5-11,76,72,68,71,68,66,95,89,72,30.02,29.85,14,3,17,0.00
2013-5-12,81,74,66,68,60,48,89,63,35,29.97,29.81,8,3,13,0.00
2013-5-13,72,65,57,53,43,36,70,47,29,30.13,29.96,8,2,14,0.00
2013-5-14,67,62,54,57,47,40,75,59,42,30.26,30.13,8,1,10,0.00
2013-5-15,79,70,62,66,60,54,84,71,49,30.15,29.97,14,6,18,0.00
2013-5-16,85,75,67,71,64,59,84,69,46,30.03,29.96,9,4,12,0.00
2013-5-17,81,73,68,70,66,63,85,80,60,30.10,30.01,9,3,12,0.00
2013-5-18,76,73,69,71,69,65,93,87,76,30.16,30.08,6,0,9,0.00
2013-5-19,75,73,72,71,70,67,93,89,79,30.14,30.07,9,0,13,0.00
2013-5-20,74,72,72,71,70,69,94,91,86,30.12,30.04,9,1,14,0.06
2013-5-21,75,73,71,73,70,69,96,93,86,30.08,29.98,9,2,12,0.14
2013-5-22,78,74,70,73,71,68,96,91,84,30.03,29.93,3,0,9,0.00
2013-5-23,77,74,69,73,71,66,96,92,79,29.97,29.84,12,2,13,0.50
2013-5-24,80,72,62,70,60,45,94,69,34,30.16,29.81,9,4,14,0.00
2013-5-25,62,57,53,47,45,42,77,65,50,30.28,30.15,4,0,9,0.00
2013-5-26,73,67,60,65,57,48,86,71,44,30.25,30.15,5,0,0,0.00
2013-5-27,75,72,66,68,65,62,91,78,69,30.26,30.18,9,1,0,0.00
2013-5-28,77,74,70,69,68,66,91,80,70,30.27,30.19,4,0,0,0.00
2013-5-29,77,75,71,70,68,66,87,79,72,30.27,30.16,6,0,4,0.00
2013-5-30,79,75,69,73,70,65,93,84,76,30.26,30.18,1,0,1,0.00
2013-5-31,79,76,72,73,72,69,93,86,79,30.23,30.14,6,0,8,0.00
2013-6-1,78,76,71,73,71,69,94,85,78,30.16,30.08,9,2,13,0.00
2013-6-2,79,76,75,75,73,71,92,88,83,30.10,29.95,8,2,12,0.00
2013-6-3,78,75,70,76,73,67,95,93,86,29.96,29.85,14,1,16,1.26
2013-6-4,80,75,70,74,72,69,97,90,76,30.05,29.90,0,0,1,0.01
2013-6-5,79,76,75,75,74,73,94,91,87,30.06,29.97,12,2,17,0.01
2013-6-6,78,76,73,76,74,72,96,92,89,29.99,29.76,9,1,13,1.44
2013-6-7,82,77,74,75,73,71,97,88,72,29.85,29.54,20,10,25,0.29
2013-6-8,85,79,76,77,75,71,95,86,65,30.10,29.85,12,5,16,0.00
2013-6-9,82,79,76,79,76,74,95,91,84,30.15,30.07,9,2,11,0.00
2013-6-10,82,79,71,78,75,68,92,88,78,30.12,29.96,15,7,19,0.11
2013-6-11,87,78,71,76,73,69,95,85,64,30.01,29.90,8,3,17,0.21
2013-6-12,81,76,74,77,74,73,96,94,85,29.97,29.93,2,0,7,0.01
2013-6-14,84,80,77,67,62,59,69,56,43,29.99,29.88,4,0,7,0.03
2013-6-15,78,77,75,67,62,53,72,62,44,30.14,29.99,8,1,10,0.00
2013-6-16,79,77,73,69,66,64,78,69,61,30.16,30.06,10,5,14,0.00
2013-6-17,82,78,74,75,72,68,89,82,69,30.08,29.96,11,4,14,0.01
2013-6-18,87,79,75,78,74,69,94,84,66,30.01,29.82,12,5,16,0.22
2013-6-19,80,78,74,76,73,71,92,87,79,30.05,29.86,7,2,10,0.07
2013-6-20,80,76,69,72,69,66,91,80,64,30.16,30.04,17,4,21,0.03
2013-6-21,82,75,66,74,69,60,93,80,72,30.17,30.10,6,0,12,0.02
2013-6-22,80,76,71,75,72,70,96,90,79,30.15,30.08,9,2,11,0.01
2013-6-23,81,78,74,77,75,72,95,89,83,30.19,30.13,7,0,11,0.00
2013-6-24,82,80,78,77,76,74,92,88,78,30.22,30.13,9,2,11,0.03
2013-6-25,83,80,77,78,76,74,94,87,74,30.16,30.03,12,4,15,0.00
2013-6-26,86,79,75,78,74,72,93,84,68,30.06,29.94,13,4,17,0.01
2013-6-27,85,79,74,79,75,69,93,88,75,30.00,29.78,14,5,17,0.08
2013-6-28,88,82,78,80,77,74,92,86,68,29.82,29.64,13,6,16,0.00
2013-6-29,83,79,73,78,75,71,92,86,75,29.77,29.66,14,6,17,0.12
2013-6-30,81,78,73,78,75,71,94,91,83,29.88,29.73,12,4,16,0.70
2013-7-1,81,78,74,78,75,72,96,90,82,30.03,29.83,14,7,18,2.64
2013-7-2,80,78,75,77,75,71,93,89,85,30.16,30.02,12,3,16,0.22
2013-7-3,82,80,78,79,76,74,93,89,83,30.23,30.13,10,2,14,0.01
2013-7-4,83,81,78,77,76,73,90,85,79,30.25,30.19,10,2,13,0.00
2013-7-5,83,81,80,78,77,75,90,86,82,30.25,30.17,9,2,14,0.04
2013-7-6,83,81,76,77,75,73,89,82,76,30.23,30.14,9,1,10,0.01
2013-7-7,83,81,79,76,74,73,86,81,74,30.19,30.09,9,4,12,0.01
2013-7-8,83,80,75,75,74,72,91,82,73,30.19,30.11,7,1,8,0.00
2013-7-9,84,80,76,77,75,72,90,84,77,30.19,30.09,11,4,14,0.00
2013-7-10,83,80,77,78,76,74,92,85,77,30.13,29.97,8,2,11,0.00
2013-7-11,84,80,77,77,76,73,91,85,69,30.01,29.88,12,4,16,0.00
2013-7-12,81,76,74,76,74,72,95,90,84,29.97,29.87,4,0,5,0.26
2013-7-13,84,78,73,78,75,72,96,88,78,30.10,29.94,13,1,17,0.02
2013-7-14,85,81,75,78,76,72,91,85,79,30.23,30.10,14,3,17,0.02
2013-7-15,85,82,78,79,77,74,89,85,80,30.26,30.19,1,0,6,0.14
2013-7-16,84,81,75,78,76,73,95,84,74,30.26,30.18,4,0,7,0.00
2013-7-17,89,81,75,80,76,71,93,85,67,30.21,30.10,9,2,10,0.12
2013-7-24,82,80,78,77,76,75,93,89,81,29.80,29.75,6,0,7,0.00
2013-7-25,82,78,74,77,74,71,94,87,77,29.98,29.76,4,0,7,0.07
2013-7-26,81,78,74,76,74,70,91,87,83,30.07,29.97,10,2,12,0.01
2013-7-27,82,80,78,76,74,73,88,84,79,30.04,29.92,9,1,10,0.00
2013-7-28,83,80,74,78,76,72,94,88,79,30.02,29.90,9,1,11,0.00
2013-7-29,85,79,73,79,76,70,95,90,71,30.13,30.00,16,2,18,1.17
2013-7-30,82,78,74,77,75,73,97,91,82,30.18,30.10,1,0,2,0.00
2013-7-31,81,79,76,77,76,73,96,91,80,30.12,30.00,4,0,4,0.09
2013-8-1,82,78,74,77,74,72,96,90,78,30.00,29.91,7,1,11,0.48
2013-8-2,84,80,76,79,77,74,95,90,80,30.04,29.92,12,3,17,0.44
2013-8-3,83,81,78,79,77,76,96,89,82,30.03,29.92,3,0,5,0.00
2013-8-4,90,82,76,77,74,72,94,78,59,30.00,29.87,7,1,8,0.00
2013-8-5,84,80,79,73,68,64,80,65,52,30.06,29.96,12,2,14,0.00
2013-8-6,82,80,79,71,68,65,75,68,61,30.05,29.96,8,0,9,0.00
2013-8-7,84,80,73,76,72,68,87,78,69,30.08,30.01,7,0,17,0.00
2013-8-8,84,80,76,79,76,73,94,87,73,30.06,30.00,7,0,8,0.00
2013-8-9,85,82,78,78,77,75,94,86,77,30.09,30.01,11,4,15,0.00
2013-8-10,84,79,76,78,76,75,95,91,77,30.11,30.07,9,1,10,0.00
2013-8-27,80,77,76,68,66,65,74,69,60,30.02,29.99,4,0,8,0.00
2013-8-28,76,75,75,67,67,67,75,75,75,30.02,30.01,0,0,0,0.00